Time;durP1;ratioP1;P1;durP2;ratioP2;P2;SDS_P1;SDS_P2;PMS_P1;PMS_P2;Temp;Humidity;BMP_temperature;BMP_pressure;BME280_temperature;BME280_humidity;BME280_pressure;Samples;Min_cycle;Max_cycle;Signal;HPM_P1;HPM_P2
2023/05/20 00:04:23;;;;;;;7.23;4.77;;;;;11.90;101730.00;;;;9801183;29;20246;-80
2023/05/20 00:09:24;;;;;;;6.63;4.50;;;;;11.90;101731.00;;;;9824628;29;20595;-81
2023/05/20 00:14:25;;;;;;;6.57;5.00;;;;;11.80;101724.00;;;;9817650;29;20220;-82
2023/05/20 00:19:27;;;;;;;6.57;4.73;;;;;11.70;101731.00;;;;9798908;29;20219;-81
2023/05/20 00:24:28;;;;;;;9.30;4.90;;;;;11.70;101726.00;;;;9816304;29;21344;-81
2023/05/20 00:29:30;;;;;;;10.70;4.70;;;;;11.60;101723.00;;;;9815228;29;20469;-81
2023/05/20 00:34:31;;;;;;;7.97;5.40;;;;;11.50;101718.00;;;;9788238;29;20239;-82
2023/05/20 00:39:32;;;;;;;7.17;5.07;;;;;11.50;101722.00;;;;9807981;29;20306;-83
2023/05/20 00:44:34;;;;;;;6.67;4.60;;;;;11.40;101722.00;;;;9794200;29;20244;-81
2023/05/20 00:49:35;;;;;;;10.00;4.93;;;;;11.40;101722.00;;;;9823340;29;20236;-83
2023/05/20 00:54:37;;;;;;;9.50;5.27;;;;;11.30;101727.00;;;;9822198;29;20215;-81
2023/05/20 00:59:39;;;;;;;10.57;4.70;;;;;11.30;101725.00;;;;9819233;29;20306;-80
2023/05/20 01:04:45;;;;;;;7.47;4.80;;;;;11.20;101726.00;;;;9807523;29;20987;-79
2023/05/20 01:09:46;;;;;;;5.63;4.13;;;;;11.20;101718.00;;;;9805898;29;20940;-83
2023/05/20 01:14:55;;;;;;;8.83;4.63;;;;;11.10;101719.00;;;;9804857;29;20528;-79
2023/05/20 01:19:58;;;;;;;12.47;4.80;;;;;11.00;101711.00;;;;9800151;29;20417;-79
2023/05/20 01:25:01;;;;;;;7.53;4.43;;;;;10.90;101719.00;;;;9809183;29;20242;-79
2023/05/20 01:30:03;;;;;;;10.60;4.17;;;;;10.90;101716.00;;;;9814950;29;20245;-78
2023/05/20 01:35:05;;;;;;;6.43;3.90;;;;;10.80;101707.00;;;;9819891;29;20215;-83
2023/05/20 01:40:14;;;;;;;4.60;3.77;;;;;10.80;101718.00;;;;9813624;29;20279;-79
2023/05/20 01:45:16;;;;;;;5.90;4.27;;;;;10.70;101709.00;;;;9797753;29;20343;-83
2023/05/20 01:50:17;;;;;;;7.67;4.70;;;;;10.60;101706.00;;;;9811505;29;20762;-80
2023/05/20 01:55:19;;;;;;;8.03;3.97;;;;;10.50;101696.00;;;;9815086;29;20243;-80
2023/05/20 02:00:20;;;;;;;8.03;4.50;;;;;10.50;101695.00;;;;9815097;29;20212;-80
2023/05/20 02:05:22;;;;;;;6.37;3.73;;;;;10.50;101689.00;;;;9785769;29;20639;-82
2023/05/20 02:10:24;;;;;;;9.73;4.23;;;;;10.50;101685.00;;;;9805186;29;20227;-82
2023/05/20 02:15:25;;;;;;;6.17;3.60;;;;;10.50;101683.00;;;;9816706;29;20219;-78
2023/05/20 02:20:26;;;;;;;7.03;3.57;;;;;10.50;101692.00;;;;9830964;29;20208;-79
2023/05/20 02:25:28;;;;;;;4.47;3.40;;;;;10.50;101684.00;;;;9827824;29;21671;-83
2023/05/20 02:30:29;;;;;;;9.27;3.97;;;;;10.50;101694.00;;;;9826609;29;20488;-79
2023/05/20 02:35:30;;;;;;;9.13;3.50;;;;;10.40;101693.00;;;;9808254;29;20238;-80
2023/05/20 02:40:33;;;;;;;9.57;4.37;;;;;10.30;101682.00;;;;9843880;29;20211;-79
2023/05/20 02:45:34;;;;;;;7.73;3.90;;;;;10.20;101687.00;;;;9817806;29;20239;-81
2023/05/20 02:50:38;;;;;;;4.83;3.63;;;;;10.20;101683.00;;;;9813193;29;20259;-82
2023/05/20 02:55:40;;;;;;;7.07;3.80;;;;;10.10;101682.00;;;;9783774;29;20343;-82
2023/05/20 03:00:42;;;;;;;7.83;3.47;;;;;10.10;101685.00;;;;9803923;29;20291;-82
2023/05/20 03:05:44;;;;;;;8.90;3.37;;;;;10.00;101689.00;;;;9792077;29;20240;-79
2023/05/20 03:10:46;;;;;;;7.70;3.33;;;;;9.90;101690.00;;;;9808014;29;20980;-80
2023/05/20 03:15:47;;;;;;;7.93;3.90;;;;;9.90;101680.00;;;;9819061;29;20219;-80
2023/05/20 03:20:49;;;;;;;6.43;3.67;;;;;9.80;101691.00;;;;9795286;29;20288;-81
2023/05/20 03:25:50;;;;;;;7.40;4.30;;;;;9.80;101686.00;;;;9799396;29;20269;-80
2023/05/20 03:30:52;;;;;;;6.07;4.67;;;;;9.70;101684.00;;;;9815446;29;20227;-80
2023/05/20 03:35:53;;;;;;;7.77;4.17;;;;;9.70;101686.00;;;;9814992;29;20634;-79
2023/05/20 03:40:54;;;;;;;6.20;4.07;;;;;9.60;101682.00;;;;9786934;29;21629;-82
2023/05/20 03:45:56;;;;;;;11.17;4.20;;;;;9.60;101682.00;;;;9797154;29;20223;-80
2023/05/20 03:50:57;;;;;;;9.00;4.60;;;;;9.60;101685.00;;;;9783024;29;20714;-81
2023/05/20 03:55:59;;;;;;;12.97;5.23;;;;;9.60;101684.00;;;;9801755;29;20334;-83
2023/05/20 04:01:00;;;;;;;7.43;4.73;;;;;9.60;101690.00;;;;9798007;29;20234;-83
2023/05/20 04:06:04;;;;;;;6.43;4.30;;;;;9.70;101690.00;;;;9795776;29;20325;-82
2023/05/20 04:11:06;;;;;;;9.97;4.53;;;;;9.80;101694.00;;;;9810791;29;20246;-80
2023/05/20 04:16:07;;;;;;;10.33;4.83;;;;;9.90;101695.00;;;;9813020;29;20223;-81
2023/05/20 04:21:09;;;;;;;6.87;4.77;;;;;10.00;101689.00;;;;9796752;29;20250;-80
2023/05/20 04:26:11;;;;;;;7.63;4.63;;;;;10.20;101689.00;;;;9785619;29;20873;-80
2023/05/20 04:31:13;;;;;;;12.87;5.20;;;;;10.40;101699.00;;;;9783438;29;20280;-81
2023/05/20 04:36:16;;;;;;;8.93;4.90;;;;;10.60;101693.00;;;;9804194;29;21628;-81
2023/05/20 04:41:18;;;;;;;10.17;4.93;;;;;10.80;101698.00;;;;9803633;29;20330;-79
2023/05/20 04:46:19;;;;;;;12.17;5.10;;;;;11.10;101688.00;;;;9777763;29;21320;-83
2023/05/20 04:51:22;;;;;;;10.27;4.73;;;;;11.40;101693.00;;;;9787512;29;20326;-82
2023/05/20 04:56:24;;;;;;;8.53;5.03;;;;;11.60;101688.00;;;;9804465;29;22189;-80
2023/05/20 05:01:26;;;;;;;9.43;4.80;;;;;12.00;101681.00;;;;9815833;29;20357;-81
2023/05/20 05:06:28;;;;;;;10.97;5.20;;;;;12.20;101673.00;;;;9821240;29;20231;-82
2023/05/20 05:11:30;;;;;;;10.80;4.80;;;;;12.30;101668.00;;;;9809015;29;20239;-79
2023/05/20 05:16:31;;;;;;;12.93;5.50;;;;;12.50;101668.00;;;;9816658;29;20227;-80
2023/05/20 05:21:33;;;;;;;9.33;5.07;;;;;12.80;101671.00;;;;9820489;29;20400;-81
2023/05/20 05:26:34;;;;;;;11.00;5.50;;;;;13.10;101676.00;;;;9803134;29;20260;-82
2023/05/20 05:31:36;;;;;;;7.97;5.30;;;;;13.30;101683.00;;;;9824900;29;20245;-81
2023/05/20 05:36:38;;;;;;;10.93;5.67;;;;;13.60;101666.00;;;;9858004;29;20682;-80
2023/05/20 05:41:40;;;;;;;9.33;5.43;;;;;14.10;101680.00;;;;9865493;29;20243;-81
2023/05/20 05:46:42;;;;;;;7.23;4.70;;;;;14.60;101679.00;;;;9886725;29;20238;-85
2023/05/20 05:51:44;;;;;;;7.20;5.07;;;;;15.10;101692.00;;;;9856742;29;20228;-84
2023/05/20 05:56:46;;;;;;;8.10;4.53;;;;;15.40;101687.00;;;;9885008;29;20286;-82
2023/05/20 06:01:48;;;;;;;9.30;4.70;;;;;15.70;101677.00;;;;9862813;29;21509;-80
2023/05/20 06:06:50;;;;;;;7.30;4.77;;;;;16.10;101667.00;;;;9857204;29;20228;-77
2023/05/20 06:11:51;;;;;;;9.70;4.63;;;;;16.40;101667.00;;;;9810043;29;20231;-77
2023/05/20 06:16:52;;;;;;;10.38;4.68;;;;;16.70;101661.00;;;;9841006;29;20673;-77
2023/05/20 06:21:56;;;;;;;6.40;4.10;;;;;17.00;101668.00;;;;9799102;29;20940;-76
2023/05/20 06:26:58;;;;;;;7.03;4.53;;;;;17.30;101657.00;;;;9799995;29;20546;-76
2023/05/20 06:32:00;;;;;;;9.70;4.60;;;;;17.60;101663.00;;;;9825019;29;20310;-77
2023/05/20 06:37:01;;;;;;;7.90;4.68;;;;;17.90;101654.00;;;;9812436;29;20705;-77
2023/05/20 06:42:03;;;;;;;6.60;4.25;;;;;18.20;101650.00;;;;9818707;29;20314;-77
2023/05/20 06:47:09;;;;;;;5.15;4.43;;;;;18.60;101647.00;;;;9819068;29;21021;-76
2023/05/20 06:52:11;;;;;;;9.40;5.22;;;;;18.80;101655.00;;;;9816497;29;20244;-77
2023/05/20 06:57:12;;;;;;;6.70;4.53;;;;;19.00;101649.00;;;;9813614;29;20223;-75
2023/05/20 07:02:14;;;;;;;5.63;4.35;;;;;19.30;101645.00;;;;9803073;29;20247;-75
2023/05/20 07:07:17;;;;;;;5.13;4.05;;;;;19.60;101639.00;;;;9830586;29;20310;-76
2023/05/20 07:12:20;;;;;;;5.60;3.95;;;;;19.90;101640.00;;;;9800599;29;20216;-76
2023/05/20 07:17:21;;;;;;;8.38;4.13;;;;;20.30;101635.00;;;;9815392;29;20669;-76
2023/05/20 07:22:22;;;;;;;4.28;3.75;;;;;20.50;101631.00;;;;9831869;29;20285;-76
2023/05/20 07:27:32;;;;;;;5.78;3.88;;;;;20.90;101632.00;;;;9800928;29;20231;-77
2023/05/20 07:32:33;;;;;;;3.92;3.53;;;;;21.20;101630.00;;;;9830848;29;20316;-79
2023/05/20 07:37:34;;;;;;;5.43;3.67;;;;;21.50;101627.00;;;;9830470;29;21486;-81
2023/05/20 07:42:36;;;;;;;6.35;3.35;;;;;22.00;101623.00;;;;9831597;29;20239;-80
2023/05/20 07:47:38;;;;;;;7.82;3.83;;;;;22.10;101613.00;;;;9833400;29;20357;-78
2023/05/20 07:52:40;;;;;;;4.88;3.13;;;;;22.40;101615.00;;;;9815241;29;21146;-80
2023/05/20 07:58:00;;;;;;;4.72;3.65;;;;;22.70;101601.00;;;;9804118;29;20230;-78
2023/05/20 08:03:02;;;;;;;4.72;3.30;;;;;22.80;101602.00;;;;9792048;29;20246;-78
2023/05/20 08:08:12;;;;;;;30.30;4.38;;;;;22.90;101588.00;;;;9788046;29;20231;-77
2023/05/20 08:13:24;;;;;;;7.53;3.17;;;;;23.00;101573.00;;;;9826185;29;20290;-81
2023/05/20 08:18:26;;;;;;;5.13;3.67;;;;;23.40;101580.00;;;;9814761;29;20944;-79
2023/05/20 08:23:28;;;;;;;6.97;3.28;;;;;23.90;101575.00;;;;9846063;29;21052;-81
2023/05/20 08:28:30;;;;;;;4.65;3.03;;;;;23.90;101568.00;;;;9816247;29;20224;-80
2023/05/20 08:33:32;;;;;;;7.55;3.00;;;;;24.10;101575.00;;;;9821739;29;20270;-81
2023/05/20 08:38:35;;;;;;;5.35;2.72;;;;;24.50;101567.00;;;;9804808;29;21725;-81
2023/05/20 08:43:36;;;;;;;4.25;2.75;;;;;24.80;101572.00;;;;9806047;29;20361;-81
2023/05/20 08:48:40;;;;;;;4.00;2.92;;;;;24.70;101575.00;;;;9807942;29;20235;-79
2023/05/20 08:53:42;;;;;;;4.38;2.75;;;;;24.90;101569.00;;;;9808986;29;20254;-79
2023/05/20 08:58:45;;;;;;;7.63;2.67;;;;;25.10;101570.00;;;;9831817;29;21935;-79
2023/05/20 09:03:47;;;;;;;8.55;2.80;;;;;25.40;101557.00;;;;9827464;29;20243;-80
2023/05/20 09:08:50;;;;;;;5.45;2.60;;;;;25.30;101562.00;;;;9836051;29;20231;-82
2023/05/20 09:13:51;;;;;;;5.22;2.40;;;;;25.50;101557.00;;;;9821878;29;20231;-80
2023/05/20 09:18:56;;;;;;;5.72;2.55;;;;;25.20;101563.00;;;;9814126;29;20227;-79
2023/05/20 09:24:01;;;;;;;3.40;2.97;;;;;25.40;101554.00;;;;9837094;29;20711;-81
2023/05/20 09:29:02;;;;;;;7.30;2.47;;;;;25.80;101552.00;;;;9838189;29;20357;-81
2023/05/20 09:34:03;;;;;;;4.47;2.80;;;;;25.90;101539.00;;;;9829850;29;20239;-83
2023/05/20 09:39:10;;;;;;;3.38;2.47;;;;;26.20;101542.00;;;;9841663;29;20297;-80
2023/05/20 09:44:15;;;;;;;3.10;2.28;;;;;25.80;101536.00;;;;9829216;29;20243;-78
2023/05/20 09:49:17;;;;;;;4.45;2.15;;;;;25.70;101526.00;;;;9825810;29;20857;-80
2023/05/20 09:54:20;;;;;;;4.30;2.45;;;;;25.80;101520.00;;;;9838401;29;20310;-79
2023/05/20 09:59:23;;;;;;;2.30;1.95;;;;;25.50;101516.00;;;;9828267;29;20223;-78
2023/05/20 10:04:26;;;;;;;3.47;2.58;;;;;25.70;101512.00;;;;9835553;29;20233;-82
2023/05/20 10:09:39;;;;;;;6.68;2.70;;;;;26.00;101514.00;;;;9829685;29;20243;-80
2023/05/20 10:15:00;;;;;;;5.80;2.60;;;;;26.50;101503.00;;;;9835030;29;20277;-82
2023/05/20 10:20:03;;;;;;;7.97;2.75;;;;;26.60;101505.00;;;;9830967;29;20505;-77
2023/05/20 10:25:11;;;;;;;3.50;2.28;;;;;27.20;101499.00;;;;9829748;29;20239;-78
2023/05/20 10:30:20;;;;;;;3.42;2.00;;;;;27.90;101485.00;;;;9826529;29;22191;-78
2023/05/20 10:35:26;;;;;;;4.88;2.13;;;;;28.20;101486.00;;;;9813027;29;20220;-78
2023/05/20 10:40:28;;;;;;;3.08;2.30;;;;;28.10;101485.00;;;;9812021;29;20250;-78
2023/05/20 10:45:31;;;;;;;3.95;2.10;;;;;27.50;101487.00;;;;9823991;29;20967;-77
2023/05/20 10:50:35;;;;;;;3.85;2.38;;;;;26.80;101478.00;;;;9826200;29;20285;-78
2023/05/20 10:55:46;;;;;;;3.88;2.38;;;;;27.20;101466.00;;;;9822271;29;22032;-77
2023/05/20 11:00:48;;;;;;;6.53;2.65;;;;;27.80;101486.00;;;;9812384;29;20644;-78
2023/05/20 11:05:52;;;;;;;2.53;2.30;;;;;28.00;101466.00;;;;9807192;29;20247;-77
2023/05/20 11:10:56;;;;;;;7.15;2.80;;;;;28.70;101453.00;;;;9773883;29;20223;-77
2023/05/20 11:15:58;;;;;;;3.95;2.78;;;;;28.90;101457.00;;;;9794529;29;20248;-78
2023/05/20 11:21:00;;;;;;;5.20;2.55;;;;;29.10;101442.00;;;;9809536;29;20679;-77
2023/05/20 11:26:02;;;;;;;4.28;2.45;;;;;29.50;101442.00;;;;9809465;29;20231;-78
2023/05/20 11:31:04;;;;;;;5.25;2.60;;;;;29.50;101452.00;;;;9792645;29;20227;-77
2023/05/20 11:36:08;;;;;;;5.13;2.78;;;;;29.70;101444.00;;;;9804693;29;21666;-77
2023/05/20 11:41:28;;;;;;;4.50;2.60;;;;;29.90;101450.00;;;;9769466;29;20250;-78
2023/05/20 11:46:30;;;;;;;4.40;2.33;;;;;29.60;101441.00;;;;9795167;29;20357;-81
2023/05/20 11:51:31;;;;;;;4.00;2.70;;;;;29.20;101448.00;;;;9844645;29;21689;-77
2023/05/20 11:56:37;;;;;;;6.25;3.00;;;;;27.30;101443.00;;;;9797481;29;20215;-76
2023/05/20 12:01:42;;;;;;;3.83;2.60;;;;;27.90;101421.00;;;;9812013;29;20322;-77
2023/05/20 12:06:43;;;;;;;3.50;2.20;;;;;29.10;101429.00;;;;9817338;29;20231;-76
2023/05/20 12:11:44;;;;;;;4.72;2.75;;;;;29.20;101399.00;;;;9801811;29;20227;-76
2023/05/20 12:16:46;;;;;;;3.50;2.38;;;;;29.80;101392.00;;;;9810735;29;20251;-79
2023/05/20 12:21:47;;;;;;;7.50;2.92;;;;;29.80;101382.00;;;;9814650;29;20246;-77
2023/05/20 12:26:49;;;;;;;2.60;2.40;;;;;28.40;101392.00;;;;9810927;29;21534;-79
2023/05/20 12:31:50;;;;;;;4.57;2.90;;;;;28.80;101389.00;;;;9798486;29;21862;-79
2023/05/20 12:36:52;;;;;;;5.05;2.38;;;;;28.80;101391.00;;;;9818643;29;20226;-79
2023/05/20 12:41:54;;;;;;;8.88;2.40;;;;;28.70;101386.00;;;;9822633;29;20971;-79
2023/05/20 12:46:55;;;;;;;3.72;2.28;;;;;28.50;101380.00;;;;9822195;29;20447;-77
2023/05/20 12:52:05;;;;;;;5.85;2.67;;;;;29.00;101377.00;;;;10528604;27;20400;-78
2023/05/20 12:57:20;;;;;;;3.67;2.25;;;;;28.20;101385.00;;;;10485275;27;20294;-78
2023/05/20 13:02:21;;;;;;;4.22;2.25;;;;;26.70;101378.00;;;;10480007;27;20212;-78
2023/05/20 13:07:24;;;;;;;4.38;2.40;;;;;26.20;101387.00;;;;10461041;27;20235;-77
2023/05/20 13:12:26;;;;;;;7.03;2.40;;;;;26.40;101387.00;;;;10467132;27;20235;-76
2023/05/20 13:17:28;;;;;;;2.72;2.13;;;;;27.10;101377.00;;;;10463654;27;20964;-77
2023/05/20 13:22:29;;;;;;;7.22;2.20;;;;;26.80;101384.00;;;;10470619;27;20849;-79
2023/05/20 13:27:30;;;;;;;6.93;2.47;;;;;27.50;101369.00;;;;10487092;27;20373;-78
2023/05/20 13:32:32;;;;;;;2.42;2.05;;;;;26.90;101369.00;;;;10477619;27;20246;-77
2023/05/20 13:37:33;;;;;;;2.83;2.10;;;;;26.80;101369.00;;;;10477841;27;20253;-76
2023/05/20 13:42:34;;;;;;;8.60;2.75;;;;;26.20;101362.00;;;;10489305;27;20328;-75
2023/05/20 13:47:36;;;;;;;6.05;2.60;;;;;25.70;101343.00;;;;10449622;27;20273;-77
2023/05/20 13:52:37;;;;;;;6.47;2.15;;;;;27.90;101333.00;;;;10465743;27;20215;-76
2023/05/20 13:57:39;;;;;;;7.53;3.25;;;;;27.10;101342.00;;;;10458444;27;20253;-75
2023/05/20 14:02:41;;;;;;;4.07;2.20;;;;;26.50;101337.00;;;;10435972;28;20232;-80
2023/05/20 14:07:42;;;;;;;2.40;2.10;;;;;26.20;101335.00;;;;10451857;28;20239;-76
2023/05/20 14:12:46;;;;;;;5.20;2.20;;;;;25.90;101326.00;;;;10431696;28;20313;-79
2023/05/20 14:17:48;;;;;;;5.40;2.20;;;;;25.70;101314.00;;;;10453293;28;20639;-77
2023/05/20 14:22:51;;;;;;;3.58;2.33;;;;;25.60;101321.00;;;;10452304;28;20201;-76
2023/05/20 14:27:52;;;;;;;6.85;2.08;;;;;25.40;101318.00;;;;10430412;28;20233;-75
2023/05/20 14:32:53;;;;;;;3.35;2.60;;;;;25.70;101310.00;;;;10450502;28;20213;-79
2023/05/20 14:37:55;;;;;;;5.35;2.40;;;;;25.40;101303.00;;;;10463425;28;20262;-79
2023/05/20 14:42:56;;;;;;;3.15;2.17;;;;;25.20;101298.00;;;;10458905;28;20899;-79
2023/05/20 14:47:57;;;;;;;3.45;2.33;;;;;24.90;101293.00;;;;10424638;28;20232;-76
2023/05/20 14:52:59;;;;;;;5.38;2.67;;;;;24.60;101288.00;;;;10428483;28;20224;-75
2023/05/20 14:58:00;;;;;;;4.15;2.33;;;;;24.60;101280.00;;;;10429800;28;20950;-76
2023/05/20 15:03:02;;;;;;;3.63;2.45;;;;;24.70;101291.00;;;;10426242;28;20219;-75
2023/05/20 15:08:04;;;;;;;3.42;2.10;;;;;24.80;101287.00;;;;10429351;28;20317;-77
2023/05/20 15:13:06;;;;;;;4.65;2.10;;;;;25.00;101278.00;;;;10431531;28;20767;-76
2023/05/20 15:18:07;;;;;;;3.13;2.17;;;;;25.10;101274.00;;;;10422892;28;20241;-76
2023/05/20 15:23:08;;;;;;;3.90;2.17;;;;;24.70;101278.00;;;;10422164;28;20559;-77
2023/05/20 15:28:10;;;;;;;3.05;2.20;;;;;24.40;101283.00;;;;10426315;28;20857;-76
2023/05/20 15:33:11;;;;;;;2.95;2.15;;;;;24.40;101273.00;;;;10407092;28;20208;-75
2023/05/20 15:38:14;;;;;;;4.20;2.20;;;;;23.60;101275.00;;;;10423338;28;20903;-76
2023/05/20 15:43:16;;;;;;;5.32;2.38;;;;;23.80;101270.00;;;;10408921;28;21342;-80
2023/05/20 15:48:17;;;;;;;2.88;2.60;;;;;24.20;101266.00;;;;10450903;28;20273;-80
2023/05/20 15:53:19;;;;;;;5.28;2.60;;;;;24.20;101277.00;;;;10436930;28;21742;-76
2023/05/20 15:58:20;;;;;;;5.30;2.80;;;;;24.00;101259.00;;;;10416515;28;21522;-76
2023/05/20 16:03:22;;;;;;;4.20;2.92;;;;;24.70;101264.00;;;;10418664;28;20238;-74
2023/05/20 16:08:23;;;;;;;15.60;3.17;;;;;25.10;101262.00;;;;10423751;28;20239;-74
2023/05/20 16:13:24;;;;;;;3.35;2.15;;;;;24.40;101269.00;;;;10421921;28;20217;-76
2023/05/20 16:18:29;;;;;;;3.08;2.72;;;;;23.40;101269.00;;;;10441213;28;20204;-81
2023/05/20 16:23:30;;;;;;;3.25;2.58;;;;;23.10;101266.00;;;;10422792;28;20239;-81
2023/05/20 16:28:32;;;;;;;7.13;3.00;;;;;23.30;101269.00;;;;10436670;28;20846;-77
2023/05/20 16:33:33;;;;;;;6.78;2.95;;;;;22.80;101276.00;;;;10404313;28;20273;-76
2023/05/20 16:38:35;;;;;;;3.80;3.22;;;;;22.60;101270.00;;;;10418050;28;20220;-76
2023/05/20 16:43:36;;;;;;;4.32;3.13;;;;;22.80;101270.00;;;;10420218;28;20701;-77
2023/05/20 16:48:38;;;;;;;4.53;3.38;;;;;23.00;101275.00;;;;10420314;28;20984;-76
2023/05/20 16:53:39;;;;;;;4.72;3.55;;;;;22.50;101269.00;;;;10398476;28;20244;-76
2023/05/20 16:58:40;;;;;;;7.05;3.67;;;;;22.10;101280.00;;;;10405195;28;20208;-78
2023/05/20 17:03:42;;;;;;;6.40;3.65;;;;;22.00;101278.00;;;;10409788;28;20289;-76
2023/05/20 17:08:43;;;;;;;5.75;3.75;;;;;21.70;101286.00;;;;10420811;28;20231;-76
2023/05/20 17:13:45;;;;;;;3.50;3.20;;;;;21.20;101274.00;;;;10401770;28;20268;-76
2023/05/20 17:18:47;;;;;;;3.03;2.72;;;;;21.50;101279.00;;;;10414241;28;20212;-75
2023/05/20 17:23:49;;;;;;;3.92;2.47;;;;;21.90;101281.00;;;;10419815;28;20231;-78
2023/05/20 17:28:50;;;;;;;5.25;3.00;;;;;21.70;101281.00;;;;10455524;28;21519;-80
2023/05/20 17:33:51;;;;;;;4.05;2.75;;;;;21.60;101282.00;;;;10445169;28;20208;-78
2023/05/20 17:38:53;;;;;;;6.45;2.75;;;;;21.40;101287.00;;;;10452192;28;20208;-77
2023/05/20 17:43:54;;;;;;;4.32;2.78;;;;;21.30;101288.00;;;;10438110;28;20594;-76
2023/05/20 17:48:56;;;;;;;6.97;3.78;;;;;20.90;101275.00;;;;10407691;28;20242;-75
2023/05/20 17:53:57;;;;;;;2.78;2.55;;;;;20.50;101288.00;;;;10408263;28;20483;-76
2023/05/20 17:58:59;;;;;;;4.10;2.60;;;;;20.20;101287.00;;;;10416486;28;20201;-77
2023/05/20 18:04:04;;;;;;;3.05;2.72;;;;;20.10;101280.00;;;;10424810;28;21950;-76
2023/05/20 18:09:05;;;;;;;3.67;2.75;;;;;20.10;101287.00;;;;10408509;28;20217;-75
2023/05/20 18:14:07;;;;;;;2.83;2.53;;;;;20.10;101288.00;;;;10433508;28;20208;-79
2023/05/20 18:19:08;;;;;;;4.43;2.92;;;;;19.90;101280.00;;;;10374699;28;20212;-77
2023/05/20 18:24:10;;;;;;;2.67;2.20;;;;;19.90;101288.00;;;;10422554;28;20204;-74
2023/05/20 18:29:11;;;;;;;4.13;2.40;;;;;19.90;101296.00;;;;10441029;28;20239;-79
2023/05/20 18:34:15;;;;;;;2.38;2.17;;;;;19.70;101301.00;;;;10416494;28;20228;-76
2023/05/20 18:39:19;;;;;;;3.97;2.38;;;;;19.40;101299.00;;;;10426998;28;20204;-77
2023/05/20 18:44:20;;;;;;;3.30;2.38;;;;;19.20;101299.00;;;;10425558;28;20542;-77
2023/05/20 18:49:22;;;;;;;3.20;2.40;;;;;19.10;101303.00;;;;10442863;28;20224;-80
2023/05/20 18:54:23;;;;;;;4.90;2.72;;;;;19.00;101298.00;;;;10409467;28;20220;-75
2023/05/20 18:59:24;;;;;;;5.88;2.55;;;;;18.90;101306.00;;;;10419420;28;20208;-75
2023/05/20 19:04:26;;;;;;;5.43;2.60;;;;;18.80;101307.00;;;;10423442;28;20293;-76
2023/05/20 19:09:28;;;;;;;3.75;2.30;;;;;18.70;101312.00;;;;10426311;28;20229;-75
2023/05/20 19:14:29;;;;;;;2.97;2.67;;;;;18.60;101310.00;;;;10398504;28;20544;-75
2023/05/20 19:19:31;;;;;;;3.83;2.67;;;;;18.40;101318.00;;;;10406783;28;20834;-76
2023/05/20 19:24:32;;;;;;;4.22;2.15;;;;;18.20;101330.00;;;;10410741;28;20239;-77
2023/05/20 19:29:34;;;;;;;4.13;2.85;;;;;18.00;101318.00;;;;10386148;28;20213;-76
2023/05/20 19:34:35;;;;;;;4.70;2.55;;;;;17.90;101323.00;;;;10386183;28;20208;-75
2023/05/20 19:39:36;;;;;;;3.83;2.63;;;;;17.70;101320.00;;;;10400268;28;20330;-78
2023/05/20 19:44:38;;;;;;;4.90;3.30;;;;;17.50;101317.00;;;;10408727;28;21000;-76
2023/05/20 19:49:39;;;;;;;4.25;3.05;;;;;17.30;101323.00;;;;10377179;28;20552;-77
2023/05/20 19:54:41;;;;;;;4.28;2.85;;;;;17.20;101332.00;;;;10427367;28;21304;-76
2023/05/20 19:59:42;;;;;;;5.75;2.80;;;;;17.00;101323.00;;;;10406873;28;20713;-76
2023/05/20 20:04:44;;;;;;;5.57;2.33;;;;;16.90;101329.00;;;;10408396;28;20796;-76
2023/05/20 20:09:47;;;;;;;4.03;2.70;;;;;16.90;101334.00;;;;10436983;28;20315;-80
2023/05/20 20:14:48;;;;;;;2.80;2.50;;;;;16.80;101337.00;;;;10423936;28;20223;-80
2023/05/20 20:19:52;;;;;;;6.28;2.42;;;;;16.80;101328.00;;;;10423894;28;20227;-75
2023/05/20 20:24:53;;;;;;;3.20;2.20;;;;;16.70;101334.00;;;;10380831;28;20209;-78
2023/05/20 20:29:54;;;;;;;3.17;2.70;;;;;16.60;101337.00;;;;10398061;28;20236;-76
2023/05/20 20:34:56;;;;;;;2.30;2.10;;;;;16.40;101337.00;;;;10424295;28;20197;-83
2023/05/20 20:40:04;;;;;;;3.60;2.93;;;;;16.30;101336.00;;;;10412596;28;21565;-81
2023/05/20 20:45:06;;;;;;;4.40;2.60;;;;;16.20;101341.00;;;;10389532;28;20231;-75
2023/05/20 20:50:08;;;;;;;4.00;2.70;;;;;16.10;101340.00;;;;10432085;28;20337;-79
2023/05/20 20:55:10;;;;;;;3.03;2.50;;;;;15.90;101346.00;;;;10430586;28;20229;-81
2023/05/20 21:00:22;;;;;;;4.03;2.87;;;;;15.80;101341.00;;;;10432051;28;20231;-79
2023/05/20 21:05:25;;;;;;;6.53;3.37;;;;;15.70;101343.00;;;;10433630;28;20662;-79
2023/05/20 21:10:28;;;;;;;5.10;2.90;;;;;15.70;101342.00;;;;10424068;28;21373;-81
2023/05/20 21:15:29;;;;;;;4.47;3.03;;;;;15.60;101342.00;;;;10425838;28;20357;-80
2023/05/20 21:20:30;;;;;;;6.27;3.33;;;;;15.50;101346.00;;;;10421023;28;20251;-80
2023/05/20 21:25:32;;;;;;;3.50;2.43;;;;;15.40;101342.00;;;;10402679;28;20204;-83
2023/05/20 21:30:34;;;;;;;3.23;2.53;;;;;15.40;101346.00;;;;10440121;28;20208;-79
2023/05/20 21:35:40;;;;;;;2.60;2.40;;;;;15.20;101360.00;;;;10445091;28;20217;-79
2023/05/20 21:40:41;;;;;;;4.07;2.60;;;;;15.10;101345.00;;;;10424379;28;20750;-76
2023/05/20 21:45:44;;;;;;;3.10;2.80;;;;;15.00;101343.00;;;;10405846;28;20349;-75
2023/05/20 21:50:45;;;;;;;5.77;2.93;;;;;14.90;101338.00;;;;10387581;28;20289;-77
2023/05/20 21:55:47;;;;;;;6.83;2.70;;;;;14.80;101345.00;;;;10410177;28;20285;-76
2023/05/20 22:00:48;;;;;;;4.73;2.77;;;;;14.70;101330.00;;;;10417880;28;20543;-76
2023/05/20 22:05:50;;;;;;;6.17;2.70;;;;;14.60;101336.00;;;;10401478;28;20726;-76
2023/05/20 22:10:51;;;;;;;3.27;2.90;;;;;14.60;101329.00;;;;10431046;28;20787;-77
2023/05/20 22:15:53;;;;;;;3.83;2.60;;;;;14.50;101337.00;;;;10426826;28;21266;-76
2023/05/20 22:20:55;;;;;;;4.73;2.63;;;;;14.50;101329.00;;;;10407265;28;20595;-75
2023/05/20 22:25:56;;;;;;;3.17;2.87;;;;;14.40;101315.00;;;;10409780;28;20614;-77
2023/05/20 22:31:04;;;;;;;6.27;2.83;;;;;14.40;101312.00;;;;10428285;28;20849;-78
2023/05/20 22:36:06;;;;;;;3.87;3.00;;;;;14.30;101312.00;;;;10436850;28;20651;-75
2023/05/20 22:41:07;;;;;;;4.93;2.83;;;;;14.20;101313.00;;;;10422416;28;20791;-77
2023/05/20 22:46:09;;;;;;;6.63;3.23;;;;;14.10;101309.00;;;;10403980;28;20200;-76
2023/05/20 22:51:13;;;;;;;3.03;2.50;;;;;14.10;101303.00;;;;10412536;28;21565;-77
2023/05/20 22:56:14;;;;;;;9.33;3.00;;;;;14.10;101296.00;;;;10430700;28;20222;-77
2023/05/20 23:01:16;;;;;;;3.83;2.70;;;;;14.10;101286.00;;;;10433038;28;20224;-75
2023/05/20 23:06:18;;;;;;;6.63;3.20;;;;;14.10;101289.00;;;;10411658;28;20197;-76
2023/05/20 23:11:20;;;;;;;4.20;2.80;;;;;14.10;101281.00;;;;10416300;28;20201;-75
2023/05/20 23:16:24;;;;;;;5.47;2.90;;;;;14.00;101285.00;;;;10414795;28;20217;-78
2023/05/20 23:21:26;;;;;;;4.30;3.33;;;;;13.80;101287.00;;;;10418331;28;20534;-75
2023/05/20 23:26:27;;;;;;;3.10;2.80;;;;;13.80;101284.00;;;;10383095;28;21387;-76
2023/05/20 23:31:31;;;;;;;5.00;2.97;;;;;13.70;101284.00;;;;10428455;28;20242;-79
2023/05/20 23:36:33;;;;;;;6.63;3.13;;;;;13.60;101277.00;;;;10422007;28;20328;-75
2023/05/20 23:41:35;;;;;;;5.40;2.97;;;;;13.40;101273.00;;;;10426054;28;20236;-76
2023/05/20 23:46:36;;;;;;;8.17;3.07;;;;;13.30;101279.00;;;;10407857;28;20251;-75
2023/05/20 23:51:38;;;;;;;4.23;3.17;;;;;13.30;101282.00;;;;10405746;28;20813;-74
2023/05/20 23:56:39;;;;;;;4.40;3.13;;;;;13.10;101285.00;;;;10415561;28;20453;-75
